Time;durP1;ratioP1;P1;durP2;ratioP2;P2;SDS_P1;SDS_P2;PMS_P1;PMS_P2;Temp;Humidity;BMP_temperature;BMP_pressure;BME280_temperature;BME280_humidity;BME280_pressure;Samples;Min_cycle;Max_cycle;Signal;HPM_P1;HPM_P2
2023/10/14 00:00:26;;;;;;;5.78;2.50;;;;;;;;;;5055963;28;20027;-76
2023/10/14 00:02:52;;;;;;;6.07;2.33;;;;;;;;;;5055830;28;20029;-76
2023/10/14 00:05:19;;;;;;;9.50;2.40;;;;;;;;;;5055771;28;20104;-76
2023/10/14 00:07:45;;;;;;;7.72;2.28;;;;;;;;;;5054540;28;20154;-76
2023/10/14 00:10:10;;;;;;;6.30;2.53;;;;;;;;;;5055746;28;20064;-76
2023/10/14 00:12:37;;;;;;;10.33;2.47;;;;;;;;;;5054291;28;20503;-76
2023/10/14 00:15:03;;;;;;;11.85;2.83;;;;;;;;;;5056195;28;20265;-76
2023/10/14 00:17:34;;;;;;;9.75;2.40;;;;;;;;;;5055514;28;20546;-76
2023/10/14 00:20:00;;;;;;;7.40;2.40;;;;;;;;;;5055851;28;20029;-76
2023/10/14 00:22:28;;;;;;;10.40;2.78;;;;;;;;;;5054621;28;20104;-76
2023/10/14 00:24:53;;;;;;;7.65;2.17;;;;;;;;;;5055389;28;20549;-76
2023/10/14 00:27:18;;;;;;;6.90;2.43;;;;;;;;;;5054348;28;20021;-76
2023/10/14 00:29:43;;;;;;;6.27;2.57;;;;;;;;;;5055357;28;20269;-77
2023/10/14 00:32:10;;;;;;;9.27;2.40;;;;;;;;;;5055357;28;20697;-76
2023/10/14 00:34:35;;;;;;;10.40;2.85;;;;;;;;;;5055259;28;20725;-77
2023/10/14 00:37:00;;;;;;;8.60;2.72;;;;;;;;;;5053688;28;20116;-77
2023/10/14 00:39:31;;;;;;;12.93;2.55;;;;;;;;;;5055338;28;20096;-76
2023/10/14 00:41:58;;;;;;;5.03;2.20;;;;;;;;;;5053813;28;20032;-76
2023/10/14 00:44:27;;;;;;;7.28;2.45;;;;;;;;;;5053782;28;20029;-76
2023/10/14 00:46:54;;;;;;;10.25;2.58;;;;;;;;;;5053863;28;20407;-76
2023/10/14 00:49:22;;;;;;;16.05;2.53;;;;;;;;;;5054889;28;20082;-76
2023/10/14 00:51:51;;;;;;;6.93;2.40;;;;;;;;;;5055238;28;20024;-76
2023/10/14 00:59:48;;;;;;;8.20;2.50;;;;;;;;;;5055135;28;20468;-76
2023/10/14 01:02:14;;;;;;;7.75;2.33;;;;;;;;;;5055044;28;20036;-76
2023/10/14 01:04:42;;;;;;;11.13;2.75;;;;;;;;;;5054677;28;20037;-76
2023/10/14 01:07:14;;;;;;;8.27;2.20;;;;;;;;;;5054922;28;20103;-76
2023/10/14 01:12:16;;;;;;;4.03;2.28;;;;;;;;;;5054817;28;20021;-76
2023/10/14 01:14:46;;;;;;;5.05;2.70;;;;;;;;;;5054670;28;20223;-76
2023/10/14 01:17:24;;;;;;;7.53;2.33;;;;;;;;;;5054633;28;20043;-76
2023/10/14 01:19:50;;;;;;;7.90;2.80;;;;;;;;;;5053156;28;20408;-76
2023/10/14 01:22:15;;;;;;;7.20;2.67;;;;;;;;;;5054286;28;20037;-76
2023/10/14 01:24:41;;;;;;;7.03;2.40;;;;;;;;;;5054582;28;20025;-76
2023/10/14 01:27:07;;;;;;;5.68;2.67;;;;;;;;;;5054190;28;20032;-76
2023/10/14 01:29:39;;;;;;;8.38;2.67;;;;;;;;;;5054213;28;20068;-76
2023/10/14 01:37:52;;;;;;;12.55;2.67;;;;;;;;;;5054046;28;20032;-76
2023/10/14 01:40:29;;;;;;;7.30;2.70;;;;;;;;;;5053929;28;20031;-76
2023/10/14 01:43:05;;;;;;;5.93;2.50;;;;;;;;;;5054132;28;20024;-76
2023/10/14 01:45:31;;;;;;;7.93;2.67;;;;;;;;;;5052677;28;20025;-76
2023/10/14 01:48:11;;;;;;;5.20;2.72;;;;;;;;;;5053877;28;20492;-76
2023/10/14 01:50:46;;;;;;;7.47;2.53;;;;;;;;;;5052832;28;20392;-76
2023/10/14 01:53:21;;;;;;;9.18;2.60;;;;;;;;;;5054017;28;20029;-76
2023/10/14 01:55:47;;;;;;;9.13;2.40;;;;;;;;;;5054084;28;20017;-76
2023/10/14 01:58:21;;;;;;;10.98;2.78;;;;;;;;;;5053849;28;20017;-76
2023/10/14 02:00:52;;;;;;;6.43;2.50;;;;;;;;;;5052391;28;20020;-76
2023/10/14 02:03:20;;;;;;;12.57;2.55;;;;;;;;;;5053735;28;20448;-76
2023/10/14 02:05:45;;;;;;;8.55;2.53;;;;;;;;;;5053792;28;20024;-76
2023/10/14 02:08:21;;;;;;;9.00;2.40;;;;;;;;;;5053742;28;20021;-76
2023/10/14 02:10:46;;;;;;;6.60;2.15;;;;;;;;;;5052252;28;20063;-76
2023/10/14 02:13:15;;;;;;;4.25;2.00;;;;;;;;;;5052097;28;20056;-77
2023/10/14 02:15:49;;;;;;;6.57;2.22;;;;;;;;;;5053352;28;20033;-76
2023/10/14 02:18:22;;;;;;;5.10;2.22;;;;;;;;;;5053533;28;20479;-76
2023/10/14 02:21:04;;;;;;;6.63;2.00;;;;;;;;;;5053514;28;20040;-76
2023/10/14 02:23:43;;;;;;;5.90;2.20;;;;;;;;;;5051928;28;20029;-76
2023/10/14 02:26:16;;;;;;;7.03;2.40;;;;;;;;;;5053213;28;20083;-76
2023/10/14 02:28:47;;;;;;;7.30;2.33;;;;;;;;;;5051889;28;20492;-76
2023/10/14 02:31:17;;;;;;;7.90;2.22;;;;;;;;;;5053227;28;20477;-76
2023/10/14 02:33:45;;;;;;;5.00;2.30;;;;;;;;;;5051742;28;20078;-76
2023/10/14 02:36:15;;;;;;;6.35;2.17;;;;;;;;;;5053107;28;20389;-76
2023/10/14 02:38:53;;;;;;;4.90;2.55;;;;;;;;;;5051807;28;20075;-76
2023/10/14 02:41:18;;;;;;;5.35;2.03;;;;;;;;;;5051792;28;20138;-76
2023/10/14 02:43:44;;;;;;;6.07;2.20;;;;;;;;;;5051721;28;20039;-76
2023/10/14 02:46:11;;;;;;;8.63;2.47;;;;;;;;;;5052466;28;20060;-76
2023/10/14 02:49:02;;;;;;;6.15;2.22;;;;;;;;;;5051592;28;20484;-76
2023/10/14 02:51:41;;;;;;;7.05;2.20;;;;;;;;;;5051955;28;20443;-76
2023/10/14 02:54:26;;;;;;;7.05;2.20;;;;;;;;;;5053048;28;20048;-76
2023/10/14 02:56:59;;;;;;;6.80;2.10;;;;;;;;;;5051569;28;20111;-76
2023/10/14 02:59:36;;;;;;;12.83;2.57;;;;;;;;;;5053051;28;20036;-76
2023/10/14 03:02:16;;;;;;;4.53;2.40;;;;;;;;;;5052777;28;20664;-76
2023/10/14 03:07:25;;;;;;;5.85;2.40;;;;;;;;;;5053312;28;20099;-76
2023/10/14 03:09:51;;;;;;;6.15;2.40;;;;;;;;;;5053101;28;20021;-76
2023/10/14 03:12:21;;;;;;;6.57;2.80;;;;;;;;;;5052651;28;20024;-76
2023/10/14 03:14:48;;;;;;;5.03;2.40;;;;;;;;;;5051380;28;20104;-76
2023/10/14 03:17:25;;;;;;;5.80;2.40;;;;;;;;;;5052609;28;20555;-76
2023/10/14 03:19:53;;;;;;;4.15;2.30;;;;;;;;;;5052945;28;20514;-76
2023/10/14 03:22:22;;;;;;;14.35;2.70;;;;;;;;;;5052598;28;20049;-76
2023/10/14 03:24:47;;;;;;;5.97;2.55;;;;;;;;;;5052852;28;20032;-76
2023/10/14 03:27:15;;;;;;;9.18;2.83;;;;;;;;;;5051342;28;20123;-76
2023/10/14 03:29:45;;;;;;;7.03;2.80;;;;;;;;;;5052544;28;20025;-76
2023/10/14 03:32:10;;;;;;;10.70;2.60;;;;;;;;;;5052710;28;20476;-76
2023/10/14 03:34:41;;;;;;;5.57;2.80;;;;;;;;;;5051227;28;20033;-76
2023/10/14 03:37:18;;;;;;;7.45;2.47;;;;;;;;;;5052493;28;20036;-76
2023/10/14 03:39:54;;;;;;;11.00;3.03;;;;;;;;;;5051289;28;20123;-76
2023/10/14 03:42:22;;;;;;;8.45;2.88;;;;;;;;;;5052650;28;20066;-76
2023/10/14 03:44:47;;;;;;;7.22;2.90;;;;;;;;;;5052630;28;20028;-76
2023/10/14 03:47:16;;;;;;;9.90;3.20;;;;;;;;;;5052331;28;20017;-77
2023/10/14 03:49:43;;;;;;;6.40;2.65;;;;;;;;;;5052331;28;20499;-77
2023/10/14 03:52:10;;;;;;;8.27;2.92;;;;;;;;;;5053270;28;20036;-76
2023/10/14 03:54:41;;;;;;;7.38;2.97;;;;;;;;;;5051035;28;20025;-76
2023/10/14 03:57:07;;;;;;;7.82;3.10;;;;;;;;;;5053429;28;20035;-76
2023/10/14 03:59:33;;;;;;;14.55;3.10;;;;;;;;;;5056179;28;20104;-76
2023/10/14 04:02:01;;;;;;;12.48;3.10;;;;;;;;;;5055861;28;20021;-76
2023/10/14 04:04:28;;;;;;;6.72;2.78;;;;;;;;;;5055803;28;20064;-76
2023/10/14 04:07:13;;;;;;;9.18;2.45;;;;;;;;;;5056088;28;20021;-76
2023/10/14 04:09:51;;;;;;;12.63;3.03;;;;;;;;;;5054507;28;20025;-76
2023/10/14 04:17:35;;;;;;;9.90;2.63;;;;;;;;;;5055874;28;20128;-76
2023/10/14 04:22:38;;;;;;;5.15;2.30;;;;;;;;;;5055490;28;20246;-76
2023/10/14 04:30:21;;;;;;;6.68;2.60;;;;;;;;;;5055748;28;20028;-76
2023/10/14 04:32:48;;;;;;;5.35;2.60;;;;;;;;;;5055263;28;20037;-76
2023/10/14 04:35:23;;;;;;;5.55;2.42;;;;;;;;;;5054028;28;20408;-76
2023/10/14 04:37:51;;;;;;;8.30;2.95;;;;;;;;;;5053902;28;20514;-76
2023/10/14 04:42:59;;;;;;;11.27;3.30;;;;;;;;;;5055427;28;20029;-76
2023/10/14 04:45:31;;;;;;;6.50;2.70;;;;;;;;;;5055138;28;20048;-76
2023/10/14 04:47:58;;;;;;;10.45;2.88;;;;;;;;;;5055551;28;20021;-76
2023/10/14 04:50:23;;;;;;;6.18;2.78;;;;;;;;;;5055266;28;20468;-76
2023/10/14 04:52:48;;;;;;;8.40;2.78;;;;;;;;;;5054888;28;20105;-76
2023/10/14 05:00:38;;;;;;;10.15;2.95;;;;;;;;;;5055225;28;20082;-76
2023/10/14 05:03:05;;;;;;;7.07;2.95;;;;;;;;;;5055049;28;20446;-76
2023/10/14 05:05:33;;;;;;;9.40;2.90;;;;;;;;;;5053466;28;20029;-76
2023/10/14 05:07:59;;;;;;;10.48;2.72;;;;;;;;;;5054605;28;20424;-76
2023/10/14 05:10:28;;;;;;;9.43;3.10;;;;;;;;;;5054659;28;20025;-76
2023/10/14 05:12:54;;;;;;;6.38;2.92;;;;;;;;;;5054567;28;20376;-77
2023/10/14 05:15:20;;;;;;;5.95;2.70;;;;;;;;;;5054592;28;20021;-76
2023/10/14 05:17:49;;;;;;;8.25;2.90;;;;;;;;;;5054480;28;20070;-76
2023/10/14 05:22:59;;;;;;;6.43;2.88;;;;;;;;;;5054680;28;20101;-76
2023/10/14 05:25:27;;;;;;;10.35;2.92;;;;;;;;;;5054315;28;20479;-76
2023/10/14 05:27:58;;;;;;;6.22;2.75;;;;;;;;;;5053052;28;20039;-76
2023/10/14 05:30:31;;;;;;;9.40;3.35;;;;;;;;;;5054182;28;20040;-76
2023/10/14 05:33:04;;;;;;;8.30;3.08;;;;;;;;;;5054173;28;20029;-76
2023/10/14 05:35:35;;;;;;;12.15;3.15;;;;;;;;;;5054316;28;20155;-76
2023/10/14 05:38:01;;;;;;;5.72;2.83;;;;;;;;;;5052806;28;20059;-76
2023/10/14 05:40:26;;;;;;;4.65;2.72;;;;;;;;;;5052733;28;20055;-76
2023/10/14 05:42:51;;;;;;;5.97;2.85;;;;;;;;;;5053938;28;20039;-76
2023/10/14 05:45:17;;;;;;;7.40;2.80;;;;;;;;;;5053963;28;20472;-76
2023/10/14 05:47:43;;;;;;;8.45;3.03;;;;;;;;;;5053942;28;20249;-76
2023/10/14 05:50:14;;;;;;;15.38;3.00;;;;;;;;;;5053912;28;20021;-76
2023/10/14 05:52:41;;;;;;;7.13;2.70;;;;;;;;;;5052824;28;20372;-76
2023/10/14 05:55:09;;;;;;;4.80;2.45;;;;;;;;;;5054096;28;20066;-76
2023/10/14 05:57:39;;;;;;;10.68;2.50;;;;;;;;;;5052297;28;20403;-76
2023/10/14 06:00:21;;;;;;;10.55;3.05;;;;;;;;;;5054091;28;20028;-76
2023/10/14 06:02:48;;;;;;;8.93;3.15;;;;;;;;;;5053796;28;20096;-76
2023/10/14 06:05:16;;;;;;;6.10;2.88;;;;;;;;;;5052228;28;20055;-76
2023/10/14 06:07:46;;;;;;;8.43;3.10;;;;;;;;;;5052276;28;20016;-76
2023/10/14 06:10:11;;;;;;;8.73;3.08;;;;;;;;;;5053554;28;20035;-78
2023/10/14 06:12:37;;;;;;;5.95;2.95;;;;;;;;;;5052091;28;20025;-76
2023/10/14 06:15:09;;;;;;;9.73;3.13;;;;;;;;;;5053458;28;20025;-76
2023/10/14 06:17:38;;;;;;;13.07;3.17;;;;;;;;;;5053411;28;20286;-76
2023/10/14 06:20:13;;;;;;;6.72;2.90;;;;;;;;;;5052660;28;20503;-76
2023/10/14 06:22:39;;;;;;;9.90;3.10;;;;;;;;;;5051945;28;20476;-76
2023/10/14 06:25:06;;;;;;;8.18;3.10;;;;;;;;;;5053258;28;20108;-76
2023/10/14 06:27:31;;;;;;;13.40;3.15;;;;;;;;;;5053231;28;20503;-76
2023/10/14 06:29:57;;;;;;;7.95;3.03;;;;;;;;;;5051942;28;20052;-76
2023/10/14 06:32:23;;;;;;;8.98;2.70;;;;;;;;;;5051889;28;20024;-77
2023/10/14 06:34:57;;;;;;;9.00;2.85;;;;;;;;;;5053114;28;20029;-76
2023/10/14 06:37:24;;;;;;;11.15;3.40;;;;;;;;;;5052906;28;20033;-76
2023/10/14 06:39:51;;;;;;;9.73;3.22;;;;;;;;;;5052015;28;20418;-76
2023/10/14 06:42:19;;;;;;;14.40;3.08;;;;;;;;;;5053259;28;20025;-76
2023/10/14 06:44:45;;;;;;;15.15;3.00;;;;;;;;;;5053238;28;20043;-76
2023/10/14 06:47:10;;;;;;;6.63;2.88;;;;;;;;;;5053076;28;20021;-77
2023/10/14 06:49:41;;;;;;;9.45;3.47;;;;;;;;;;5052939;28;20052;-76
2023/10/14 06:52:11;;;;;;;12.73;3.30;;;;;;;;;;5051626;28;20111;-76
2023/10/14 06:54:37;;;;;;;8.45;3.13;;;;;;;;;;5052871;28;20032;-76
2023/10/14 06:57:07;;;;;;;10.23;3.28;;;;;;;;;;5051575;28;20016;-76
2023/10/14 06:59:33;;;;;;;7.97;2.80;;;;;;;;;;5052822;28;20070;-76
2023/10/14 07:01:59;;;;;;;8.60;2.88;;;;;;;;;;5052811;28;20033;-76
2023/10/14 07:04:25;;;;;;;8.80;3.50;;;;;;;;;;5052744;28;20025;-76
2023/10/14 07:06:51;;;;;;;8.25;3.50;;;;;;;;;;5052803;28;20028;-76
2023/10/14 07:09:17;;;;;;;12.02;3.55;;;;;;;;;;5052990;28;20017;-78
2023/10/14 07:11:45;;;;;;;11.02;3.25;;;;;;;;;;5052768;28;20464;-77
2023/10/14 07:14:10;;;;;;;10.18;3.17;;;;;;;;;;5052602;28;20025;-76
2023/10/14 07:16:35;;;;;;;9.43;3.10;;;;;;;;;;5052744;28;20400;-76
2023/10/14 07:19:00;;;;;;;11.07;3.60;;;;;;;;;;5052614;28;20031;-76
2023/10/14 07:21:26;;;;;;;16.65;3.50;;;;;;;;;;5052666;28;20311;-76
2023/10/14 07:23:51;;;;;;;14.43;3.50;;;;;;;;;;5052522;28;20082;-76
2023/10/14 07:26:16;;;;;;;9.80;3.03;;;;;;;;;;5052611;28;20487;-76
2023/10/14 07:28:42;;;;;;;12.43;2.80;;;;;;;;;;5052857;28;20250;-76
2023/10/14 07:31:10;;;;;;;5.80;2.20;;;;;;;;;;5053830;28;20040;-76
2023/10/14 07:33:36;;;;;;;4.25;1.50;;;;;;;;;;5056453;28;20021;-78
2023/10/14 07:36:06;;;;;;;5.03;1.20;;;;;;;;;;5055039;28;20448;-76
2023/10/14 07:38:32;;;;;;;3.65;1.42;;;;;;;;;;5056568;28;20029;-76
2023/10/14 07:40:58;;;;;;;3.97;1.30;;;;;;;;;;5056799;28;20028;-75
2023/10/14 07:43:26;;;;;;;2.55;1.02;;;;;;;;;;5056184;28;20041;-76
2023/10/14 07:45:52;;;;;;;1.95;0.80;;;;;;;;;;5055985;28;20033;-76
2023/10/14 07:48:19;;;;;;;1.00;0.88;;;;;;;;;;5056059;28;20023;-76
2023/10/14 07:50:47;;;;;;;1.35;0.70;;;;;;;;;;5056072;28;20036;-76
2023/10/14 07:53:14;;;;;;;1.60;0.80;;;;;;;;;;5055664;28;20020;-76
2023/10/14 07:55:47;;;;;;;0.60;0.60;;;;;;;;;;5055625;28;20040;-76
2023/10/14 07:58:13;;;;;;;1.65;0.80;;;;;;;;;;5055539;28;20102;-76
2023/10/14 08:00:50;;;;;;;2.15;0.80;;;;;;;;;;5055509;28;20475;-76
2023/10/14 08:03:17;;;;;;;1.33;0.88;;;;;;;;;;5055587;28;20033;-76
2023/10/14 08:05:54;;;;;;;1.75;0.80;;;;;;;;;;5055388;28;20025;-76
2023/10/14 08:08:23;;;;;;;1.98;0.80;;;;;;;;;;5055737;28;20017;-76
2023/10/14 08:10:50;;;;;;;2.28;0.98;;;;;;;;;;5055431;28;20104;-76
2023/10/14 08:13:22;;;;;;;1.58;0.75;;;;;;;;;;5055391;28;20039;-76
2023/10/14 08:15:53;;;;;;;2.33;0.82;;;;;;;;;;5055560;28;20377;-76
2023/10/14 08:18:23;;;;;;;12.25;1.35;;;;;;;;;;5054100;28;20395;-76
2023/10/14 08:20:49;;;;;;;1.33;0.90;;;;;;;;;;5054026;28;20021;-76
2023/10/14 08:23:14;;;;;;;1.08;0.70;;;;;;;;;;5055286;28;20480;-76
2023/10/14 08:25:42;;;;;;;2.00;0.70;;;;;;;;;;5055024;28;20067;-76
2023/10/14 08:28:09;;;;;;;1.83;1.05;;;;;;;;;;5053776;28;20043;-76
2023/10/14 08:30:46;;;;;;;2.00;1.00;;;;;;;;;;5055267;28;20059;-76
2023/10/14 08:33:15;;;;;;;1.92;0.90;;;;;;;;;;5055108;28;20028;-76
2023/10/14 08:35:42;;;;;;;2.50;0.70;;;;;;;;;;5055360;28;20020;-76
2023/10/14 08:38:12;;;;;;;6.07;0.70;;;;;;;;;;5054269;28;20031;-76
2023/10/14 08:40:39;;;;;;;3.17;0.60;;;;;;;;;;5055139;28;20099;-76
2023/10/14 08:43:08;;;;;;;1.40;0.35;;;;;;;;;;5053922;28;20047;-76
2023/10/14 08:45:36;;;;;;;0.50;0.30;;;;;;;;;;5054991;28;20461;-76
2023/10/14 08:48:05;;;;;;;1.80;0.60;;;;;;;;;;5054633;28;20446;-76
2023/10/14 08:50:34;;;;;;;1.98;0.30;;;;;;;;;;5053383;28;20107;-76
2023/10/14 08:53:05;;;;;;;0.70;0.35;;;;;;;;;;5054782;28;20028;-76
2023/10/14 08:55:33;;;;;;;0.22;0.20;;;;;;;;;;5054556;28;20043;-76
2023/10/14 08:58:04;;;;;;;1.50;0.70;;;;;;;;;;5054442;28;20021;-76
2023/10/14 09:00:30;;;;;;;1.40;0.70;;;;;;;;;;5054784;28;20029;-76
2023/10/14 09:02:57;;;;;;;1.05;0.40;;;;;;;;;;5054782;28;20033;-76
2023/10/14 09:05:25;;;;;;;1.10;0.43;;;;;;;;;;5054382;28;20025;-76
2023/10/14 09:07:50;;;;;;;0.80;0.52;;;;;;;;;;5054583;28;20024;-77
2023/10/14 09:10:18;;;;;;;1.75;0.55;;;;;;;;;;5054236;28;20025;-77
2023/10/14 09:13:00;;;;;;;1.88;0.50;;;;;;;;;;5054138;28;20029;-76
2023/10/14 09:15:27;;;;;;;0.77;0.50;;;;;;;;;;5054238;28;20029;-77
2023/10/14 09:17:56;;;;;;;0.70;0.60;;;;;;;;;;5052997;28;20032;-77
2023/10/14 09:20:30;;;;;;;2.65;0.82;;;;;;;;;;5054161;28;20051;-77
2023/10/14 09:23:17;;;;;;;1.15;0.60;;;;;;;;;;5053931;28;20020;-77
2023/10/14 09:25:45;;;;;;;1.75;0.50;;;;;;;;;;5054323;28;20032;-76
2023/10/14 09:28:16;;;;;;;2.25;0.60;;;;;;;;;;5054317;28;20025;-76
2023/10/14 09:30:45;;;;;;;2.60;0.70;;;;;;;;;;5053862;28;20109;-75
2023/10/14 09:33:17;;;;;;;1.58;0.60;;;;;;;;;;5052484;28;20027;-76
2023/10/14 09:35:53;;;;;;;1.15;0.70;;;;;;;;;;5053582;28;20025;-76
2023/10/14 09:38:22;;;;;;;1.05;0.40;;;;;;;;;;5052428;28;20063;-76
2023/10/14 09:40:53;;;;;;;0.70;0.50;;;;;;;;;;5053586;28;20024;-76
2023/10/14 09:43:23;;;;;;;0.90;0.60;;;;;;;;;;5053719;28;20395;-76
2023/10/14 09:45:50;;;;;;;1.73;0.80;;;;;;;;;;5053474;28;20203;-76
2023/10/14 09:48:16;;;;;;;1.42;0.57;;;;;;;;;;5053780;28;20504;-76
2023/10/14 09:50:43;;;;;;;1.05;0.50;;;;;;;;;;5053895;28;20057;-75
2023/10/14 09:53:13;;;;;;;0.55;0.50;;;;;;;;;;5052596;28;20025;-76
2023/10/14 09:55:41;;;;;;;2.50;0.57;;;;;;;;;;5053144;28;20476;-77
2023/10/14 09:58:08;;;;;;;1.45;0.77;;;;;;;;;;5053962;28;20503;-76
2023/10/14 10:00:33;;;;;;;3.63;0.60;;;;;;;;;;5053751;28;20112;-75
2023/10/14 10:03:01;;;;;;;1.88;0.90;;;;;;;;;;5053664;28;20048;-76
2023/10/14 10:05:38;;;;;;;1.60;0.60;;;;;;;;;;5052377;28;20024;-76
2023/10/14 10:08:24;;;;;;;1.30;0.70;;;;;;;;;;5053723;28;20468;-75
2023/10/14 10:10:51;;;;;;;3.38;0.98;;;;;;;;;;5053640;28;20110;-75
2023/10/14 10:13:17;;;;;;;2.95;0.70;;;;;;;;;;5052059;28;20025;-75
2023/10/14 10:15:44;;;;;;;0.82;0.65;;;;;;;;;;5053440;28;20090;-76
2023/10/14 10:18:12;;;;;;;0.57;0.55;;;;;;;;;;5053424;28;20086;-76
2023/10/14 10:20:47;;;;;;;2.08;0.80;;;;;;;;;;5053337;28;20021;-76
2023/10/14 10:23:14;;;;;;;2.72;0.80;;;;;;;;;;5051985;28;20025;-75
2023/10/14 10:25:47;;;;;;;1.30;0.70;;;;;;;;;;5053477;28;20036;-75
2023/10/14 10:28:27;;;;;;;1.65;0.70;;;;;;;;;;5053461;28;20087;-76
2023/10/14 10:31:03;;;;;;;2.40;0.90;;;;;;;;;;5051828;28;20056;-76
2023/10/14 10:33:57;;;;;;;1.35;0.60;;;;;;;;;;5053352;28;20025;-75
2023/10/14 10:36:33;;;;;;;2.83;0.98;;;;;;;;;;5051781;28;20029;-76
2023/10/14 10:39:16;;;;;;;2.78;0.77;;;;;;;;;;5053388;28;20035;-75
2023/10/14 10:41:42;;;;;;;1.35;0.60;;;;;;;;;;5053455;28;20025;-76
2023/10/14 10:44:09;;;;;;;3.03;0.80;;;;;;;;;;5052987;28;20484;-75
2023/10/14 10:46:44;;;;;;;2.13;0.90;;;;;;;;;;5051787;28;20032;-75
2023/10/14 10:49:12;;;;;;;5.60;0.95;;;;;;;;;;5051703;28;20044;-75
2023/10/14 10:52:12;;;;;;;5.85;0.75;;;;;;;;;;5053260;28;20096;-76
2023/10/14 10:54:47;;;;;;;2.63;0.80;;;;;;;;;;5053034;28;20028;-76
2023/10/14 10:57:13;;;;;;;4.22;1.10;;;;;;;;;;5051805;28;20046;-76
2023/10/14 10:59:39;;;;;;;5.35;1.27;;;;;;;;;;5052877;28;20502;-76
2023/10/14 11:02:09;;;;;;;2.97;0.80;;;;;;;;;;5052767;28;20032;-76
2023/10/14 11:04:34;;;;;;;4.80;1.10;;;;;;;;;;5051589;28;20135;-76
2023/10/14 11:07:00;;;;;;;6.30;1.27;;;;;;;;;;5055713;28;20056;-76
2023/10/14 11:09:26;;;;;;;4.63;1.17;;;;;;;;;;5057783;28;20388;-76
2023/10/14 11:12:00;;;;;;;5.10;1.00;;;;;;;;;;5056903;28;20021;-77
2023/10/14 11:14:26;;;;;;;2.75;0.70;;;;;;;;;;5057266;28;20035;-76
2023/10/14 11:16:56;;;;;;;5.80;1.30;;;;;;;;;;5056776;28;20037;-76
2023/10/14 11:19:21;;;;;;;2.13;0.77;;;;;;;;;;5057598;28;20434;-77
2023/10/14 11:21:49;;;;;;;3.08;0.90;;;;;;;;;;5056808;28;20024;-76
2023/10/14 11:24:15;;;;;;;2.60;0.75;;;;;;;;;;5056679;28;20053;-75
2023/10/14 11:26:42;;;;;;;4.30;1.10;;;;;;;;;;5057001;28;20048;-76
2023/10/14 11:29:07;;;;;;;4.32;0.98;;;;;;;;;;5056896;28;20020;-75
2023/10/14 11:31:32;;;;;;;4.13;0.88;;;;;;;;;;5056592;28;20025;-76
2023/10/14 11:34:01;;;;;;;4.57;0.88;;;;;;;;;;5055343;28;20107;-76
2023/10/14 11:36:27;;;;;;;4.53;1.02;;;;;;;;;;5055165;28;20174;-76
2023/10/14 11:38:56;;;;;;;5.10;1.05;;;;;;;;;;5057018;28;20033;-76
2023/10/14 11:41:21;;;;;;;4.20;1.10;;;;;;;;;;5056586;28;20020;-75
2023/10/14 11:43:47;;;;;;;4.47;0.85;;;;;;;;;;5056376;28;20028;-76
2023/10/14 11:46:12;;;;;;;6.10;1.00;;;;;;;;;;5056285;28;20111;-77
2023/10/14 11:48:38;;;;;;;2.67;0.75;;;;;;;;;;5056341;28;20021;-76
2023/10/14 11:51:11;;;;;;;5.88;1.38;;;;;;;;;;5056700;28;20021;-76
2023/10/14 11:53:41;;;;;;;3.72;1.00;;;;;;;;;;5056365;28;20103;-76
2023/10/14 11:56:06;;;;;;;4.10;1.23;;;;;;;;;;5056602;28;20099;-76
2023/10/14 11:58:35;;;;;;;3.08;0.85;;;;;;;;;;5056075;28;20113;-76
2023/10/14 12:01:00;;;;;;;2.65;0.88;;;;;;;;;;5056114;28;20506;-76
2023/10/14 12:03:26;;;;;;;4.57;1.08;;;;;;;;;;5054635;28;20115;-76
2023/10/14 12:05:57;;;;;;;4.32;1.02;;;;;;;;;;5055999;28;20025;-76
2023/10/14 12:08:27;;;;;;;2.92;0.90;;;;;;;;;;5054754;28;20484;-76
2023/10/14 12:10:53;;;;;;;3.60;0.98;;;;;;;;;;5054728;28;20391;-76
2023/10/14 12:13:23;;;;;;;5.65;0.80;;;;;;;;;;5055892;28;20031;-77
2023/10/14 12:15:49;;;;;;;4.30;0.93;;;;;;;;;;5056155;28;20085;-76
2023/10/14 12:18:15;;;;;;;3.30;0.82;;;;;;;;;;5054470;28;20040;-76
2023/10/14 12:20:45;;;;;;;4.30;0.90;;;;;;;;;;5054387;28;20028;-76
2023/10/14 12:23:11;;;;;;;7.55;1.50;;;;;;;;;;5055675;28;20029;-77
2023/10/14 12:25:36;;;;;;;7.53;1.38;;;;;;;;;;5055618;28;20471;-77
2023/10/14 12:28:01;;;;;;;3.80;1.10;;;;;;;;;;5054450;28;20017;-76
2023/10/14 12:30:42;;;;;;;3.92;0.98;;;;;;;;;;5055540;28;20440;-77
2023/10/14 12:33:08;;;;;;;3.63;1.00;;;;;;;;;;5054153;28;20017;-76
2023/10/14 12:35:40;;;;;;;2.08;0.80;;;;;;;;;;5055218;28;20503;-76
2023/10/14 12:38:11;;;;;;;6.90;1.13;;;;;;;;;;5055749;28;20041;-76
2023/10/14 12:40:38;;;;;;;4.22;0.88;;;;;;;;;;5055365;28;20496;-75
2023/10/14 12:43:05;;;;;;;5.47;1.02;;;;;;;;;;5055294;28;20056;-76
2023/10/14 12:45:32;;;;;;;5.40;1.13;;;;;;;;;;5055154;28;20052;-76
2023/10/14 12:48:00;;;;;;;3.80;0.85;;;;;;;;;;5055075;28;20384;-76
2023/10/14 12:50:26;;;;;;;6.65;1.00;;;;;;;;;;5055375;28;20096;-75
2023/10/14 12:53:02;;;;;;;5.22;1.02;;;;;;;;;;5054937;28;20063;-76
2023/10/14 12:55:30;;;;;;;3.90;1.17;;;;;;;;;;5055300;28;20024;-76
2023/10/14 12:57:57;;;;;;;6.75;0.90;;;;;;;;;;5054785;28;20487;-76
2023/10/14 13:00:25;;;;;;;7.10;1.30;;;;;;;;;;5055226;28;20025;-76
2023/10/14 13:02:52;;;;;;;8.13;1.50;;;;;;;;;;5054867;28;20029;-76
2023/10/14 13:05:20;;;;;;;5.50;1.23;;;;;;;;;;5054760;28;20029;-76
2023/10/14 13:07:52;;;;;;;4.20;1.20;;;;;;;;;;5053471;28;20082;-76
2023/10/14 13:10:25;;;;;;;3.92;1.02;;;;;;;;;;5053392;28;20021;-76
2023/10/14 13:12:52;;;;;;;6.88;1.20;;;;;;;;;;5053310;28;20031;-76
2023/10/14 13:15:25;;;;;;;4.72;1.10;;;;;;;;;;5053281;28;20077;-76
2023/10/14 13:18:04;;;;;;;5.20;1.30;;;;;;;;;;5054623;28;20463;-76
2023/10/14 13:20:34;;;;;;;4.15;1.08;;;;;;;;;;5054752;28;20032;-76
2023/10/14 13:23:09;;;;;;;3.90;1.00;;;;;;;;;;5053089;28;20094;-76
2023/10/14 13:25:36;;;;;;;5.43;1.40;;;;;;;;;;5053171;28;20431;-76
2023/10/14 13:28:03;;;;;;;4.90;1.30;;;;;;;;;;5054270;28;20086;-75
2023/10/14 13:30:29;;;;;;;3.13;1.08;;;;;;;;;;5054336;28;20025;-76
2023/10/14 13:32:55;;;;;;;8.68;1.20;;;;;;;;;;5054157;28;20021;-77
2023/10/14 13:35:21;;;;;;;4.15;1.05;;;;;;;;;;5054097;28;20503;-76
2023/10/14 13:37:47;;;;;;;5.05;1.23;;;;;;;;;;5054008;28;20028;-76
2023/10/14 13:40:20;;;;;;;4.85;1.15;;;;;;;;;;5052821;28;20027;-76
2023/10/14 13:42:45;;;;;;;1.98;0.95;;;;;;;;;;5054244;28;20036;-76
2023/10/14 13:45:12;;;;;;;3.38;1.30;;;;;;;;;;5054002;28;20025;-76
2023/10/14 13:47:37;;;;;;;3.63;1.00;;;;;;;;;;5052698;28;20024;-76
2023/10/14 13:50:04;;;;;;;3.83;1.10;;;;;;;;;;5053908;28;20392;-76
2023/10/14 13:52:32;;;;;;;4.32;1.30;;;;;;;;;;5053801;28;20033;-76
2023/10/14 13:54:58;;;;;;;4.53;1.33;;;;;;;;;;5053750;28;20029;-76
2023/10/14 13:57:26;;;;;;;4.90;1.30;;;;;;;;;;5052554;28;20025;-76
2023/10/14 13:59:53;;;;;;;1.45;0.80;;;;;;;;;;5053742;28;20108;-76
2023/10/14 14:02:19;;;;;;;9.27;1.20;;;;;;;;;;5053631;28;20053;-76
2023/10/14 14:04:45;;;;;;;3.88;0.90;;;;;;;;;;5053658;28;20025;-76
2023/10/14 14:07:12;;;;;;;3.13;0.80;;;;;;;;;;5052333;28;20040;-76
2023/10/14 14:09:38;;;;;;;2.08;0.90;;;;;;;;;;5053550;28;20070;-76
2023/10/14 14:12:04;;;;;;;5.75;1.20;;;;;;;;;;5052158;28;20123;-75
2023/10/14 14:14:29;;;;;;;3.88;1.00;;;;;;;;;;5053472;28;20032;-76
2023/10/14 14:16:55;;;;;;;6.05;0.95;;;;;;;;;;5053489;28;20037;-76
2023/10/14 14:19:20;;;;;;;3.75;1.00;;;;;;;;;;5053358;28;20170;-76
2023/10/14 14:21:48;;;;;;;5.50;1.30;;;;;;;;;;5052022;28;20020;-76
2023/10/14 14:24:15;;;;;;;6.78;1.27;;;;;;;;;;5053236;28;20031;-76
2023/10/14 14:26:41;;;;;;;6.57;1.23;;;;;;;;;;5053323;28;20041;-76
2023/10/14 14:29:09;;;;;;;3.50;0.98;;;;;;;;;;5053216;28;20091;-76
2023/10/14 14:31:34;;;;;;;3.60;0.95;;;;;;;;;;5053177;28;20021;-76
2023/10/14 14:34:00;;;;;;;2.17;1.02;;;;;;;;;;5053137;28;20513;-76
2023/10/14 14:36:26;;;;;;;3.95;1.17;;;;;;;;;;5052936;28;20031;-76
2023/10/14 14:38:51;;;;;;;8.07;1.30;;;;;;;;;;5052978;28;20103;-78
2023/10/14 14:41:25;;;;;;;2.88;1.10;;;;;;;;;;5053063;28;20132;-76
2023/10/14 14:43:51;;;;;;;;;;;;;;;;;;5053763;28;20086;-76
2023/10/14 14:46:16;;;;;;;5.88;1.15;;;;;;;;;;5053027;28;20330;-76
2023/10/14 14:48:42;;;;;;;3.90;1.08;;;;;;;;;;5053020;28;20467;-76
2023/10/14 14:51:10;;;;;;;4.28;1.15;;;;;;;;;;5052890;28;20032;-76
2023/10/14 14:53:36;;;;;;;5.93;0.90;;;;;;;;;;5052889;28;20029;-76
2023/10/14 14:56:08;;;;;;;3.08;0.90;;;;;;;;;;5052891;28;20051;-76
2023/10/14 14:58:33;;;;;;;6.78;1.75;;;;;;;;;;5053043;28;20108;-76
2023/10/14 15:00:58;;;;;;;5.18;1.10;;;;;;;;;;5053149;28;20104;-76
2023/10/14 15:03:23;;;;;;;3.17;1.00;;;;;;;;;;5052766;28;20017;-76
2023/10/14 15:05:51;;;;;;;4.43;1.13;;;;;;;;;;5053019;28;20029;-76
2023/10/14 15:08:18;;;;;;;4.03;0.88;;;;;;;;;;5053292;28;20018;-76
2023/10/14 15:10:44;;;;;;;1.27;0.60;;;;;;;;;;5052726;28;20021;-76
2023/10/14 15:13:11;;;;;;;2.42;0.93;;;;;;;;;;5051346;28;20043;-76
2023/10/14 15:15:41;;;;;;;4.78;0.90;;;;;;;;;;5051409;28;20021;-76
2023/10/14 15:18:10;;;;;;;2.58;0.88;;;;;;;;;;5053164;28;20033;-76
2023/10/14 15:20:36;;;;;;;3.75;0.95;;;;;;;;;;5051335;28;20075;-76
2023/10/14 15:23:02;;;;;;;5.13;1.10;;;;;;;;;;5052505;28;20025;-76
2023/10/14 15:25:28;;;;;;;6.25;0.90;;;;;;;;;;5052643;28;20372;-76
2023/10/14 15:27:57;;;;;;;4.88;0.93;;;;;;;;;;5051346;28;20083;-76
2023/10/14 15:30:25;;;;;;;6.93;1.30;;;;;;;;;;5051655;28;20052;-76